createdAt,value
2023-05-02T00:00:09.561Z,11.00
2023-05-02T00:02:39.030Z,11.00
2023-05-02T00:05:08.034Z,11.00
2023-05-02T00:07:36.935Z,11.00
2023-05-02T00:10:06.085Z,11.00
2023-05-02T00:12:34.063Z,11.00
2023-05-02T00:15:02.160Z,11.10
2023-05-02T00:17:30.198Z,11.20
2023-05-02T00:20:01.554Z,11.00
2023-05-02T00:22:29.912Z,11.00
2023-05-02T00:24:58.677Z,11.50
2023-05-02T00:27:26.774Z,11.10
2023-05-02T00:29:55.171Z,11.10
2023-05-02T00:32:23.362Z,11.10
2023-05-02T00:34:51.696Z,12.00
2023-05-02T00:37:21.435Z,11.20
2023-05-02T00:39:49.423Z,11.10
2023-05-02T00:42:17.425Z,11.30
2023-05-02T00:44:45.487Z,11.20
2023-05-02T00:47:13.509Z,11.10
2023-05-02T00:49:41.551Z,11.10
2023-05-02T00:52:09.930Z,11.00
2023-05-02T00:54:40.398Z,11.50
2023-05-02T00:57:08.390Z,11.20
2023-05-02T00:59:37.877Z,11.00
2023-05-02T01:02:19.738Z,10.90
2023-05-02T01:04:59.162Z,11.50
2023-05-02T01:07:39.381Z,11.30
2023-05-02T01:10:18.981Z,11.00
2023-05-02T01:12:54.760Z,11.00
2023-05-02T01:15:24.406Z,11.00
2023-05-02T01:17:55.106Z,11.00
2023-05-02T01:20:27.765Z,10.90
2023-05-02T01:23:01.580Z,10.90
2023-05-02T01:25:50.598Z,11.00
2023-05-02T01:28:30.230Z,10.90
2023-05-02T01:31:00.717Z,10.90
2023-05-02T01:33:31.442Z,11.10
2023-05-02T01:36:00.680Z,10.90
2023-05-02T01:38:30.059Z,10.90
2023-05-02T01:41:03.413Z,10.80
2023-05-02T01:43:33.082Z,10.80
2023-05-02T01:46:04.870Z,10.90
2023-05-02T01:48:33.692Z,10.80
2023-05-02T01:51:02.956Z,10.80
2023-05-02T01:53:34.307Z,10.80
2023-05-02T01:56:04.126Z,11.10
2023-05-02T01:58:33.182Z,10.80
2023-05-02T02:01:03.616Z,10.80
2023-05-02T02:03:33.086Z,10.60
2023-05-02T02:06:02.715Z,10.70
2023-05-02T02:08:30.720Z,10.90
2023-05-02T02:11:02.667Z,10.70
2023-05-02T02:13:35.496Z,10.70
2023-05-02T02:16:07.753Z,10.60
2023-05-02T02:18:38.820Z,10.60
2023-05-02T02:21:10.297Z,10.80
2023-05-02T02:23:43.427Z,10.60
2023-05-02T02:26:12.443Z,10.60
2023-05-02T02:28:41.161Z,10.60
2023-05-02T02:31:10.611Z,11.30
2023-05-02T02:33:39.176Z,10.70
2023-05-02T02:36:25.651Z,11.50
2023-05-02T02:39:00.888Z,10.60
2023-05-02T02:41:34.087Z,11.40
2023-05-02T02:44:13.428Z,10.60
2023-05-02T02:46:51.572Z,10.50
2023-05-02T02:49:36.710Z,10.50
2023-05-02T02:52:11.624Z,10.50
2023-05-02T02:54:46.284Z,10.50
2023-05-02T02:57:19.592Z,10.90
2023-05-02T02:59:57.555Z,10.40
2023-05-02T03:02:32.071Z,10.40
2023-05-02T03:05:01.227Z,10.40
2023-05-02T03:07:29.793Z,10.40
2023-05-02T03:09:58.178Z,10.40
2023-05-02T03:12:26.233Z,10.40
2023-05-02T03:14:56.682Z,10.40
2023-05-02T03:17:26.229Z,10.40
2023-05-02T03:19:57.505Z,10.40
2023-05-02T03:22:25.608Z,10.50
2023-05-02T03:24:53.601Z,10.60
2023-05-02T03:27:21.626Z,10.50
2023-05-02T03:29:49.581Z,10.30
2023-05-02T03:32:17.588Z,10.50
2023-05-02T03:34:45.672Z,10.30
2023-05-02T03:37:15.193Z,10.30
2023-05-02T03:39:43.250Z,10.50
2023-05-02T03:42:11.261Z,10.20
2023-05-02T03:44:39.281Z,10.20
2023-05-02T03:47:07.458Z,10.20
2023-05-02T03:49:36.141Z,10.10
2023-05-02T03:52:04.200Z,10.30
2023-05-02T03:54:35.044Z,10.20
2023-05-02T03:57:04.795Z,10.30
2023-05-02T03:59:35.112Z,10.00
2023-05-02T04:02:03.144Z,10.10
2023-05-02T04:04:31.179Z,10.60
2023-05-02T04:06:59.968Z,10.10
2023-05-02T04:09:27.997Z,10.10
2023-05-02T04:11:57.428Z,10.90
2023-05-02T04:14:25.381Z,10.10
2023-05-02T04:16:53.725Z,10.10
2023-05-02T04:19:21.643Z,10.00
2023-05-02T04:21:49.543Z,10.00
2023-05-02T04:24:17.475Z,10.00
2023-05-02T04:26:47.543Z,10.00
2023-05-02T04:29:16.925Z,10.00
2023-05-02T04:31:45.283Z,10.10
2023-05-02T04:34:13.293Z,10.00
2023-05-02T04:36:41.280Z,10.00
2023-05-02T04:39:09.858Z,10.10
2023-05-02T04:41:37.894Z,10.50
2023-05-02T04:44:06.342Z,10.00
2023-05-02T04:46:35.714Z,10.00
2023-05-02T04:49:03.804Z,10.90
2023-05-02T04:51:31.962Z,9.90
2023-05-02T04:53:59.961Z,9.90
2023-05-02T04:56:28.152Z,9.90
2023-05-02T04:58:56.148Z,10.20
2023-05-02T05:01:27.886Z,9.90
2023-05-02T05:03:57.574Z,10.10
2023-05-02T05:06:26.450Z,10.00
2023-05-02T05:08:54.467Z,9.90
2023-05-02T05:11:22.470Z,10.00
2023-05-02T05:13:50.769Z,10.50
2023-05-02T05:16:19.056Z,10.00
2023-05-02T05:18:47.217Z,10.00
2023-05-02T05:21:16.615Z,9.90
2023-05-02T05:23:46.264Z,9.90
2023-05-02T05:26:15.501Z,10.10
2023-05-02T05:28:44.199Z,9.80
2023-05-02T05:31:16.577Z,9.90
2023-05-02T05:33:45.501Z,9.80
2023-05-02T05:36:15.106Z,9.70
2023-05-02T05:38:44.639Z,9.90
2023-05-02T05:41:12.643Z,10.20
2023-05-02T05:43:40.825Z,9.90
2023-05-02T05:46:08.922Z,9.90
2023-05-02T05:48:36.868Z,9.90
2023-05-02T05:51:06.038Z,11.00
2023-05-02T05:53:34.059Z,9.90
2023-05-02T05:56:09.999Z,9.90
2023-05-02T05:58:38.170Z,10.00
2023-05-02T06:01:06.397Z,10.00
2023-05-02T06:03:34.542Z,10.10
2023-05-02T06:06:02.795Z,10.10
2023-05-02T06:08:30.906Z,10.10
2023-05-02T06:10:58.976Z,10.20
2023-05-02T06:13:28.771Z,10.20
2023-05-02T06:16:01.295Z,10.20
2023-05-02T06:18:29.401Z,10.30
2023-05-02T06:20:57.666Z,11.00
2023-05-02T06:23:25.797Z,11.10
2023-05-02T06:25:54.198Z,11.10
2023-05-02T06:28:22.200Z,10.10
2023-05-02T06:30:58.657Z,10.20
2023-05-02T06:33:26.673Z,10.20
2023-05-02T06:35:54.960Z,10.30
2023-05-02T06:38:23.179Z,10.50
2023-05-02T06:40:51.350Z,10.30
2023-05-02T06:43:19.831Z,10.30
2023-05-02T06:45:47.844Z,10.40
2023-05-02T06:48:17.241Z,10.40
2023-05-02T06:50:45.340Z,10.50
2023-05-02T06:53:13.313Z,10.50
2023-05-02T06:55:41.399Z,10.50
2023-05-02T06:58:09.408Z,10.80
2023-05-02T07:00:37.461Z,10.60
2023-05-02T07:03:05.667Z,10.70
2023-05-02T07:05:35.121Z,11.10
2023-05-02T07:08:03.130Z,11.70
2023-05-02T07:10:31.282Z,11.10
2023-05-02T07:12:59.297Z,10.90
2023-05-02T07:15:27.383Z,10.90
2023-05-02T07:17:55.479Z,10.90
2023-05-02T07:20:24.432Z,11.40
2023-05-02T07:22:54.241Z,10.90
2023-05-02T07:25:22.253Z,11.50
2023-05-02T07:27:50.180Z,10.90
2023-05-02T07:30:18.178Z,11.40
2023-05-02T07:32:46.645Z,11.10
2023-05-02T07:35:14.660Z,11.00
2023-05-02T07:37:42.783Z,11.10
2023-05-02T07:40:12.719Z,11.20
2023-05-02T07:42:44.288Z,11.20
2023-05-02T07:45:12.401Z,11.40
2023-05-02T07:47:40.482Z,11.20
2023-05-02T07:50:09.346Z,11.30
2023-05-02T07:52:37.340Z,11.20
2023-05-02T07:55:06.163Z,11.40
2023-05-02T07:57:35.529Z,11.40
2023-05-02T08:00:03.849Z,12.20
2023-05-02T08:02:32.142Z,11.50
2023-05-02T08:05:00.240Z,11.50
2023-05-02T08:07:28.257Z,11.60
2023-05-02T08:09:56.310Z,11.60
2023-05-02T08:12:24.295Z,12.40
2023-05-02T08:14:53.746Z,12.10
2023-05-02T08:17:21.858Z,11.50
2023-05-02T08:19:50.159Z,12.00
2023-05-02T08:22:18.152Z,11.40
2023-05-02T08:24:46.112Z,11.70
2023-05-02T08:27:14.109Z,11.70
2023-05-02T08:29:42.081Z,11.60
2023-05-02T08:32:11.559Z,11.50
2023-05-02T08:34:39.668Z,11.50
2023-05-02T08:37:10.095Z,11.50
2023-05-02T08:39:38.096Z,11.70
2023-05-02T08:42:08.676Z,11.80
2023-05-02T08:44:36.821Z,11.70
2023-05-02T08:47:06.046Z,11.70
2023-05-02T08:49:37.052Z,11.70
2023-05-02T08:52:06.860Z,11.80
2023-05-02T08:54:38.399Z,11.80
2023-05-02T08:57:07.170Z,12.00
2023-05-02T08:59:35.385Z,11.80
2023-05-02T09:02:10.494Z,11.70
2023-05-02T09:04:43.168Z,11.70
2023-05-02T09:07:11.496Z,11.80
2023-05-02T09:09:39.498Z,11.80
2023-05-02T09:12:07.428Z,12.00
2023-05-02T09:14:35.462Z,11.90
2023-05-02T09:17:03.849Z,12.10
2023-05-02T09:19:32.088Z,12.20
2023-05-02T09:22:04.211Z,12.30
2023-05-02T09:24:32.536Z,12.30
2023-05-02T09:27:03.121Z,12.40
2023-05-02T09:29:35.885Z,12.40
2023-05-02T09:32:05.053Z,12.40
2023-05-02T09:34:33.764Z,12.40
2023-05-02T09:37:05.479Z,12.90
2023-05-02T09:39:33.443Z,12.90
2023-05-02T09:42:02.753Z,13.00
2023-05-02T09:44:39.225Z,13.10
2023-05-02T09:47:09.300Z,13.30
2023-05-02T09:49:42.213Z,13.30
2023-05-02T09:52:15.942Z,13.30
2023-05-02T09:54:44.176Z,13.70
2023-05-02T09:57:12.192Z,13.00
2023-05-02T09:59:41.294Z,12.90
2023-05-02T10:02:12.038Z,13.00
2023-05-02T10:04:41.762Z,13.10
2023-05-02T10:07:11.593Z,13.30
2023-05-02T10:09:44.692Z,13.80
2023-05-02T10:12:16.799Z,13.40
2023-05-02T10:14:50.765Z,13.30
2023-05-02T10:17:24.255Z,13.30
2023-05-02T10:19:58.310Z,13.40
2023-05-02T10:22:27.639Z,13.50
2023-05-02T10:25:00.755Z,13.60
2023-05-02T10:27:31.779Z,14.10
2023-05-02T10:30:01.071Z,13.90
2023-05-02T10:32:29.913Z,14.00
2023-05-02T10:34:59.114Z,14.10
2023-05-02T10:37:28.800Z,14.40
2023-05-02T10:39:58.298Z,14.30
2023-05-02T10:42:27.375Z,14.40
2023-05-02T10:44:55.417Z,14.60
2023-05-02T10:47:24.419Z,14.80
2023-05-02T10:49:53.556Z,15.00
2023-05-02T10:52:29.603Z,15.00
2023-05-02T10:55:19.451Z,14.70
2023-05-02T10:58:22.404Z,14.80
2023-05-02T11:00:50.535Z,15.10
2023-05-02T11:04:00.126Z,15.30
2023-05-02T11:06:29.752Z,15.40
2023-05-02T11:09:34.112Z,15.20
2023-05-02T11:12:04.846Z,15.20
2023-05-02T11:14:52.516Z,15.20
2023-05-02T11:17:21.358Z,15.90
2023-05-02T11:20:28.845Z,15.10
2023-05-02T11:22:58.934Z,15.20
2023-05-02T11:25:34.879Z,15.40
2023-05-02T11:28:09.029Z,15.50
2023-05-02T11:30:44.744Z,15.90
2023-05-02T11:33:17.163Z,15.60
2023-05-02T11:35:47.248Z,15.60
2023-05-02T11:38:17.425Z,15.60
2023-05-02T11:40:52.750Z,15.70
2023-05-02T11:43:22.911Z,15.40
2023-05-02T11:45:51.293Z,15.80
2023-05-02T11:48:20.681Z,16.00
2023-05-02T11:50:50.878Z,16.00
2023-05-02T11:53:22.266Z,16.40
2023-05-02T11:55:51.452Z,16.70
2023-05-02T11:58:22.834Z,16.90
2023-05-02T12:00:52.573Z,17.00
2023-05-02T12:03:22.442Z,17.10
2023-05-02T12:05:51.228Z,16.60
2023-05-02T12:08:20.983Z,16.50
2023-05-02T12:10:49.953Z,17.00
2023-05-02T12:13:18.579Z,17.20
2023-05-02T12:15:48.890Z,17.30
2023-05-02T12:18:17.060Z,17.60
2023-05-02T12:20:45.686Z,17.80
2023-05-02T12:23:14.052Z,17.60
2023-05-02T12:25:42.722Z,17.70
2023-05-02T12:28:11.383Z,17.90
2023-05-02T12:30:41.089Z,17.60
2023-05-02T12:33:11.296Z,17.60
2023-05-02T12:35:39.392Z,18.10
2023-05-02T12:38:16.255Z,18.10
2023-05-02T12:40:52.280Z,18.40
2023-05-02T12:43:21.974Z,18.40
2023-05-02T12:45:53.631Z,18.60
2023-05-02T12:48:25.589Z,18.80
2023-05-02T12:50:54.709Z,18.40
2023-05-02T12:53:45.799Z,17.70
2023-05-02T12:56:13.781Z,18.40
2023-05-02T12:58:43.792Z,18.70
2023-05-02T13:01:11.958Z,17.90
2023-05-02T13:03:42.294Z,18.60
2023-05-02T13:06:11.223Z,18.10
2023-05-02T13:08:39.835Z,17.80
2023-05-02T13:11:07.828Z,18.10
2023-05-02T13:13:36.015Z,18.30
2023-05-02T13:16:04.083Z,18.70
2023-05-02T13:18:32.175Z,18.70
2023-05-02T13:21:01.592Z,18.40
2023-05-02T13:23:29.596Z,18.20
2023-05-02T13:25:57.653Z,18.70
2023-05-02T13:28:25.978Z,18.90
2023-05-02T13:30:54.028Z,19.50
2023-05-02T13:33:22.037Z,18.90
2023-05-02T13:35:50.084Z,18.90
2023-05-02T13:38:19.483Z,19.50
2023-05-02T13:40:47.576Z,20.10
2023-05-02T13:43:15.894Z,20.50
2023-05-02T13:45:44.011Z,20.70
2023-05-02T13:48:12.108Z,20.30
2023-05-02T13:50:40.149Z,20.40
2023-05-02T13:53:08.113Z,20.50
2023-05-02T13:55:37.452Z,21.10
2023-05-02T13:58:05.872Z,21.30
2023-05-02T14:00:34.676Z,21.00
2023-05-02T14:03:02.847Z,21.00
2023-05-02T14:05:30.895Z,21.40
2023-05-02T14:07:58.850Z,21.80
2023-05-02T14:10:26.865Z,21.40
2023-05-02T14:12:56.304Z,22.20
2023-05-02T14:15:24.299Z,22.50
2023-05-02T14:17:52.250Z,22.70
2023-05-02T14:20:20.403Z,22.70
2023-05-02T14:22:48.358Z,22.90
2023-05-02T14:25:19.674Z,22.90
2023-05-02T14:27:47.707Z,23.40
2023-05-02T14:30:17.278Z,23.10
2023-05-02T14:32:45.380Z,23.10
2023-05-02T14:35:13.381Z,23.30
2023-05-02T14:37:44.937Z,22.80
2023-05-02T14:40:14.008Z,23.30
2023-05-02T14:42:42.106Z,22.90
2023-05-02T14:45:11.073Z,23.90
2023-05-02T14:47:40.560Z,24.00
2023-05-02T14:50:09.623Z,23.80
2023-05-02T14:52:37.569Z,24.10
2023-05-02T14:55:06.300Z,24.40
2023-05-02T14:57:34.516Z,24.30
2023-05-02T15:00:02.833Z,24.30
2023-05-02T15:02:31.314Z,24.40
2023-05-02T15:05:01.374Z,24.50
2023-05-02T15:07:29.614Z,24.60
2023-05-02T15:09:57.703Z,24.40
2023-05-02T15:12:26.355Z,24.70
2023-05-02T15:14:54.370Z,24.50
2023-05-02T15:17:22.580Z,24.50
2023-05-02T15:19:50.553Z,24.70
2023-05-02T15:22:20.671Z,24.50
2023-05-02T15:24:48.703Z,24.50
2023-05-02T15:27:16.695Z,25.00
2023-05-02T15:29:44.949Z,25.30
2023-05-02T15:32:13.007Z,24.80
2023-05-02T15:34:41.080Z,24.50
2023-05-02T15:37:09.021Z,23.80
2023-05-02T15:39:38.428Z,24.10
2023-05-02T15:42:07.007Z,24.70
2023-05-02T15:44:36.052Z,24.30
2023-05-02T15:47:04.121Z,24.60
2023-05-02T15:49:33.427Z,24.60
2023-05-02T15:52:03.372Z,24.20
2023-05-02T15:54:32.160Z,24.30
2023-05-02T15:57:02.517Z,24.90
2023-05-02T15:59:30.607Z,24.90
2023-05-02T16:01:58.674Z,24.50
2023-05-02T16:04:27.789Z,24.00
2023-05-02T16:06:56.002Z,23.80
2023-05-02T16:09:24.078Z,24.00
2023-05-02T16:11:52.244Z,23.80
2023-05-02T16:14:23.910Z,23.80
2023-05-02T16:16:51.967Z,23.60
2023-05-02T16:19:21.106Z,23.30
2023-05-02T16:21:49.112Z,23.30
2023-05-02T16:24:17.137Z,23.30
2023-05-02T16:26:45.495Z,23.10
2023-05-02T16:29:13.659Z,22.60
2023-05-02T16:31:44.653Z,22.10
2023-05-02T16:34:12.931Z,21.70
2023-05-02T16:36:41.237Z,21.90
2023-05-02T16:39:10.164Z,22.40
2023-05-02T16:41:38.129Z,22.30
2023-05-02T16:44:06.346Z,22.00
2023-05-02T16:46:34.353Z,21.40
2023-05-02T16:49:03.735Z,21.80
2023-05-02T16:51:32.379Z,22.00
2023-05-02T16:54:00.342Z,21.80
2023-05-02T16:56:28.361Z,21.80
2023-05-02T16:58:56.559Z,22.00
2023-05-02T17:01:24.687Z,22.20
2023-05-02T17:03:52.763Z,22.30
2023-05-02T17:06:22.995Z,22.10
2023-05-02T17:08:51.033Z,22.10
2023-05-02T17:11:19.093Z,22.20
2023-05-02T17:13:49.649Z,22.00
2023-05-02T17:16:17.987Z,21.90
2023-05-02T17:18:46.144Z,22.10
2023-05-02T17:21:14.351Z,22.10
2023-05-02T17:23:43.774Z,22.00
2023-05-02T17:26:15.585Z,22.20
2023-05-02T17:28:44.976Z,21.50
2023-05-02T17:31:13.177Z,21.40
2023-05-02T17:33:42.315Z,21.40
2023-05-02T17:36:10.734Z,21.50
2023-05-02T17:38:38.754Z,21.40
2023-05-02T17:41:08.207Z,20.60
2023-05-02T17:43:37.963Z,20.40
2023-05-02T17:46:09.372Z,20.60
2023-05-02T17:48:37.942Z,20.00
2023-05-02T17:51:07.038Z,19.80
2023-05-02T17:53:36.817Z,19.60
2023-05-02T17:56:05.615Z,19.30
2023-05-02T17:58:37.622Z,18.50
2023-05-02T18:01:09.072Z,18.50
2023-05-02T18:03:37.321Z,18.40
2023-05-02T18:06:06.011Z,18.20
2023-05-02T18:08:34.064Z,17.80
2023-05-02T18:11:03.259Z,17.50
2023-05-02T18:13:32.335Z,17.50
2023-05-02T18:16:02.469Z,17.20
2023-05-02T18:18:30.535Z,17.10
2023-05-02T18:20:58.558Z,16.70
2023-05-02T18:23:26.560Z,16.70
2023-05-02T18:25:54.641Z,16.50
2023-05-02T18:28:22.635Z,16.10
2023-05-02T18:30:50.664Z,15.70
2023-05-02T18:33:20.104Z,15.60
2023-05-02T18:35:48.468Z,15.40
2023-05-02T18:38:16.807Z,15.30
2023-05-02T18:40:44.853Z,15.00
2023-05-02T18:43:12.891Z,14.90
2023-05-02T18:45:40.922Z,14.50
2023-05-02T18:48:09.071Z,14.60
2023-05-02T18:50:38.513Z,14.50
2023-05-02T18:53:06.489Z,14.40
2023-05-02T18:55:34.520Z,14.20
2023-05-02T18:58:02.606Z,14.10
2023-05-02T19:00:31.635Z,13.80
2023-05-02T19:02:59.916Z,13.80
2023-05-02T19:05:28.319Z,13.80
2023-05-02T19:07:57.711Z,13.70
2023-05-02T19:10:25.722Z,13.50
2023-05-02T19:12:53.704Z,13.40
2023-05-02T19:15:23.726Z,13.30
2023-05-02T19:17:53.336Z,13.10
2023-05-02T19:20:21.408Z,13.00
2023-05-02T19:22:49.909Z,12.80
2023-05-02T19:25:19.362Z,12.70
2023-05-02T19:27:49.307Z,12.60
2023-05-02T19:30:18.081Z,12.60
2023-05-02T19:32:46.071Z,12.40
2023-05-02T19:35:14.102Z,12.20
2023-05-02T19:37:43.905Z,12.10
2023-05-02T19:40:12.854Z,12.00
2023-05-02T19:42:42.199Z,11.90
2023-05-02T19:45:13.694Z,11.80
2023-05-02T19:47:43.814Z,11.80
2023-05-02T19:50:12.691Z,11.80
2023-05-02T19:52:41.604Z,11.60
2023-05-02T19:55:10.402Z,11.60
2023-05-02T19:57:38.465Z,11.50
2023-05-02T20:00:09.380Z,12.00
2023-05-02T20:02:37.481Z,11.30
2023-05-02T20:05:05.953Z,11.20
2023-05-02T20:07:33.962Z,11.10
2023-05-02T20:10:02.214Z,11.00
2023-05-02T20:12:30.555Z,11.20
2023-05-02T20:14:58.612Z,11.00
2023-05-02T20:17:27.982Z,10.90
2023-05-02T20:19:56.161Z,11.30
2023-05-02T20:22:24.266Z,10.70
2023-05-02T20:24:52.211Z,10.60
2023-05-02T20:27:20.249Z,10.50
2023-05-02T20:29:48.265Z,10.40
2023-05-02T20:32:16.852Z,10.30
2023-05-02T20:34:46.577Z,10.30
2023-05-02T20:37:14.549Z,10.30
2023-05-02T20:39:42.623Z,10.10
2023-05-02T20:42:10.684Z,10.10
2023-05-02T20:44:39.122Z,10.00
2023-05-02T20:47:07.111Z,10.00
2023-05-02T20:49:35.099Z,9.90
2023-05-02T20:52:06.600Z,9.80
2023-05-02T20:54:34.572Z,9.70
2023-05-02T20:57:03.396Z,9.70
2023-05-02T20:59:31.952Z,9.60
2023-05-02T21:02:00.118Z,9.60
2023-05-02T21:04:28.333Z,9.50
2023-05-02T21:06:56.772Z,9.40
2023-05-02T21:09:26.190Z,9.30
2023-05-02T21:11:54.219Z,9.30
2023-05-02T21:14:24.431Z,9.70
2023-05-02T21:16:52.681Z,9.20
2023-05-02T21:19:21.566Z,9.10
2023-05-02T21:21:49.565Z,9.00
2023-05-02T21:24:17.691Z,8.90
2023-05-02T21:26:47.096Z,8.90
2023-05-02T21:29:15.982Z,8.90
2023-05-02T21:31:44.260Z,8.90
2023-05-02T21:34:12.268Z,8.80
2023-05-02T21:36:40.202Z,8.60
2023-05-02T21:39:08.121Z,8.70
2023-05-02T21:41:36.193Z,8.60
2023-05-02T21:44:05.911Z,8.50
2023-05-02T21:46:33.903Z,8.50
2023-05-02T21:49:01.862Z,8.40
2023-05-02T21:51:29.869Z,8.30
2023-05-02T21:53:57.806Z,8.30
2023-05-02T21:56:25.817Z,8.20
2023-05-02T21:58:53.770Z,8.20
2023-05-02T22:01:23.161Z,8.10
2023-05-02T22:03:51.135Z,8.10
2023-05-02T22:06:19.124Z,8.00
2023-05-02T22:08:47.232Z,8.00
2023-05-02T22:11:16.013Z,7.90
2023-05-02T22:13:47.107Z,8.00
2023-05-02T22:16:16.277Z,7.90
2023-05-02T22:18:49.503Z,7.70
2023-05-02T22:21:18.878Z,7.80
2023-05-02T22:23:49.124Z,7.80
2023-05-02T22:26:17.363Z,7.70
2023-05-02T22:28:45.315Z,7.70
2023-05-02T22:31:14.146Z,7.70
2023-05-02T22:33:42.687Z,7.60
2023-05-02T22:36:12.213Z,8.20
2023-05-02T22:38:40.729Z,7.50
2023-05-02T22:41:08.752Z,7.60
2023-05-02T22:43:36.872Z,7.50
2023-05-02T22:46:04.970Z,7.50
2023-05-02T22:48:33.004Z,7.50
2023-05-02T22:51:01.143Z,8.10
2023-05-02T22:53:30.490Z,7.30
2023-05-02T22:55:58.464Z,8.00
2023-05-02T22:58:26.423Z,7.20
2023-05-02T23:00:54.378Z,7.20
2023-05-02T23:03:22.437Z,7.10
2023-05-02T23:05:50.845Z,7.30
2023-05-02T23:08:18.850Z,7.10
2023-05-02T23:10:48.191Z,7.30
2023-05-02T23:13:16.121Z,7.10
2023-05-02T23:15:44.701Z,7.00
2023-05-02T23:18:12.884Z,7.00
2023-05-02T23:20:41.032Z,8.20
2023-05-02T23:23:09.002Z,6.90
2023-05-02T23:25:37.902Z,6.80
2023-05-02T23:28:07.380Z,7.20
2023-05-02T23:30:35.513Z,6.80
2023-05-02T23:33:03.521Z,6.70
2023-05-02T23:35:32.296Z,7.20
2023-05-02T23:38:01.119Z,6.70
2023-05-02T23:40:29.131Z,6.60
2023-05-02T23:42:57.125Z,6.60
2023-05-02T23:45:26.548Z,6.60
2023-05-02T23:47:54.547Z,6.60
2023-05-02T23:50:22.544Z,6.50
2023-05-02T23:52:50.537Z,6.50
2023-05-02T23:55:19.043Z,6.50
2023-05-02T23:57:47.077Z,6.40
